sensor_id;sensor_type;location;lat;lon;timestamp;pressure;altitude;pressure_sealevel;temperature;humidity
84789;BME280;75022;50.788;20.620;2024-03-17T00:00:16;101807.53;;;7.5200000000000005;75.98
84789;BME280;75022;50.788;20.620;2024-03-17T00:10:03;101764.09;;;7.5;80.34
84789;BME280;75022;50.788;20.620;2024-03-17T00:20:29;101798.46;;;7.43;83.47999999999999
84789;BME280;75022;50.788;20.620;2024-03-17T00:30:20;101708.29;;;7.38;83.53
84789;BME280;75022;50.788;20.620;2024-03-17T00:40:15;101783.84;;;7.32;82.14
84789;BME280;75022;50.788;20.620;2024-03-17T00:50:12;101773.47;;;7.24;80.84
84789;BME280;75022;50.788;20.620;2024-03-17T01:00:12;101825.87;;;6.99;78.34
84789;BME280;75022;50.788;20.620;2024-03-17T01:10:18;101824.32;;;6.59;73.0
84789;BME280;75022;50.788;20.620;2024-03-17T01:20:15;101797.32;;;6.21;74.07000000000001
84789;BME280;75022;50.788;20.620;2024-03-17T01:30:17;101823.92;;;5.81;77.29
84789;BME280;75022;50.788;20.620;2024-03-17T01:40:12;101897.71;;;5.46;80.71000000000001
84789;BME280;75022;50.788;20.620;2024-03-17T01:50:06;101942.91;;;5.13;84.64
84789;BME280;75022;50.788;20.620;2024-03-17T02:00:15;101958.04;;;4.96;88.42
84789;BME280;75022;50.788;20.620;2024-03-17T02:10:09;101883.36;;;4.819999999999999;92.02
84789;BME280;75022;50.788;20.620;2024-03-17T02:20:16;101787.17;;;4.680000000000001;91.82000000000001
84789;BME280;75022;50.788;20.620;2024-03-17T02:30:14;101901.56;;;4.54;90.95
84789;BME280;75022;50.788;20.620;2024-03-17T02:40:15;101962.35;;;4.39;91.28
84789;BME280;75022;50.788;20.620;2024-03-17T02:50:10;101954.83;;;4.26;90.06
84789;BME280;75022;50.788;20.620;2024-03-17T03:00:16;101853.63;;;4.119999999999999;90.28
84789;BME280;75022;50.788;20.620;2024-03-17T03:10:13;101957.1;;;4.109999999999999;90.34
84789;BME280;75022;50.788;20.620;2024-03-17T03:20:05;101988.7;;;4.0;90.33
84789;BME280;75022;50.788;20.620;2024-03-17T03:30:17;101959.54;;;3.8899999999999997;89.91
84789;BME280;75022;50.788;20.620;2024-03-17T03:40:19;101985.44;;;3.7699999999999996;89.52
84789;BME280;75022;50.788;20.620;2024-03-17T03:50:21;101832.66;;;3.65;90.14
84789;BME280;75022;50.788;20.620;2024-03-17T04:00:22;101843.57;;;3.52;90.24
84789;BME280;75022;50.788;20.620;2024-03-17T04:10:13;101957.4;;;3.38;89.27000000000001
84789;BME280;75022;50.788;20.620;2024-03-17T04:20:02;101969.35;;;3.35;89.57000000000001
84789;BME280;75022;50.788;20.620;2024-03-17T04:30:03;101904.93;;;3.21;89.65
84789;BME280;75022;50.788;20.620;2024-03-17T04:40:02;101973.2;;;3.07;89.36
84789;BME280;75022;50.788;20.620;2024-03-17T04:50:05;102012.16;;;2.96;89.79
84789;BME280;75022;50.788;20.620;2024-03-17T05:00:15;102011.56;;;2.84;89.87
84789;BME280;75022;50.788;20.620;2024-03-17T05:10:11;102002.71;;;2.73;89.97
84789;BME280;75022;50.788;20.620;2024-03-17T05:20:10;102076.28;;;2.63;90.34
84789;BME280;75022;50.788;20.620;2024-03-17T05:30:07;101994.06;;;2.62;90.28
84789;BME280;75022;50.788;20.620;2024-03-17T05:40:17;102115.33;;;2.62;90.74
84789;BME280;75022;50.788;20.620;2024-03-17T05:50:11;102133.38;;;2.6399999999999997;89.9
84789;BME280;75022;50.788;20.620;2024-03-17T06:00:08;102096.37;;;2.65;89.88
84789;BME280;75022;50.788;20.620;2024-03-17T06:10:09;102000.64;;;2.69;89.36
84789;BME280;75022;50.788;20.620;2024-03-17T06:20:03;102066.71;;;2.7;88.32
84789;BME280;75022;50.788;20.620;2024-03-17T06:30:19;102100.39;;;2.7399999999999998;87.81
84789;BME280;75022;50.788;20.620;2024-03-17T06:40:20;102145.65;;;2.7600000000000002;87.53
84789;BME280;75022;50.788;20.620;2024-03-17T06:50:13;102082.72;;;2.7600000000000002;87.43
84789;BME280;75022;50.788;20.620;2024-03-17T07:00:25;102088.02;;;2.7899999999999996;84.53
84789;BME280;75022;50.788;20.620;2024-03-17T07:10:12;102186.51;;;2.85;79.61
84789;BME280;75022;50.788;20.620;2024-03-17T07:20:03;102187.43;;;2.92;76.03
84789;BME280;75022;50.788;20.620;2024-03-17T07:30:08;102178.88;;;3.05;69.69000000000001
84789;BME280;75022;50.788;20.620;2024-03-17T07:40:17;102070.54;;;3.17;64.4
84789;BME280;75022;50.788;20.620;2024-03-17T07:50:15;102118.14;;;3.3;59.129999999999995
84789;BME280;75022;50.788;20.620;2024-03-17T08:00:23;102165.75;;;3.3899999999999997;57.35
84789;BME280;75022;50.788;20.620;2024-03-17T08:10:03;102081.08;;;3.4299999999999997;56.88
84789;BME280;75022;50.788;20.620;2024-03-17T08:20:11;102177.43;;;3.4699999999999998;55.81999999999999
84789;BME280;75022;50.788;20.620;2024-03-17T08:30:15;102212.79;;;3.46;59.06999999999999
84789;BME280;75022;50.788;20.620;2024-03-17T08:40:16;102139.53;;;3.4499999999999997;62.19
84789;BME280;75022;50.788;20.620;2024-03-17T08:50:15;102174.46;;;3.4299999999999997;65.44
84789;BME280;75022;50.788;20.620;2024-03-17T09:00:16;102145.21;;;3.4499999999999997;69.16
84789;BME280;75022;50.788;20.620;2024-03-17T09:10:15;102161.52;;;3.51;72.39999999999999
84789;BME280;75022;50.788;20.620;2024-03-17T09:20:18;102195.11;;;3.5799999999999996;76.01
84789;BME280;75022;50.788;20.620;2024-03-17T09:30:15;102042.07;;;3.6999999999999997;76.09
84789;BME280;75022;50.788;20.620;2024-03-17T09:40:15;102065.87;;;3.8699999999999997;76.3
84789;BME280;75022;50.788;20.620;2024-03-17T09:50:02;102044.85;;;4.04;75.94
84789;BME280;75022;50.788;20.620;2024-03-17T10:00:22;102188.58;;;4.17;75.27
84789;BME280;75022;50.788;20.620;2024-03-17T10:10:25;102030.86;;;4.2299999999999995;74.99
84789;BME280;75022;50.788;20.620;2024-03-17T10:20:24;102127.28;;;4.279999999999999;74.73
84789;BME280;75022;50.788;20.620;2024-03-17T10:30:27;102059.31;;;4.3;74.11
84789;BME280;75022;50.788;20.620;2024-03-17T10:40:13;102037.06;;;4.23;73.95
84789;BME280;75022;50.788;20.620;2024-03-17T10:50:17;102048.57;;;4.26;74.16
84789;BME280;75022;50.788;20.620;2024-03-17T11:00:36;102018.52;;;4.3;73.78
84789;BME280;75022;50.788;20.620;2024-03-17T11:10:23;102208.97;;;4.39;74.05
84789;BME280;75022;50.788;20.620;2024-03-17T11:20:34;102196.98;;;4.449999999999999;74.13
84789;BME280;75022;50.788;20.620;2024-03-17T11:40:40;102135.25;;;4.59;73.9
84789;BME280;75022;50.788;20.620;2024-03-17T11:50:20;102096.0;;;4.6;73.85
84789;BME280;75022;50.788;20.620;2024-03-17T12:00:30;102160.55;;;4.66;73.89
84789;BME280;75022;50.788;20.620;2024-03-17T12:10:22;102166.78;;;4.72;73.83
84789;BME280;75022;50.788;20.620;2024-03-17T12:20:26;102181.48;;;4.81;73.32
84789;BME280;75022;50.788;20.620;2024-03-17T12:30:12;102019.45;;;4.85;72.78
84789;BME280;75022;50.788;20.620;2024-03-17T12:40:24;101974.98;;;4.83;72.53
84789;BME280;75022;50.788;20.620;2024-03-17T12:50:05;102156.96;;;4.87;72.27
84789;BME280;75022;50.788;20.620;2024-03-17T13:00:16;102048.62;;;4.93;72.71
84789;BME280;75022;50.788;20.620;2024-03-17T13:10:17;102135.4;;;4.99;72.62
84789;BME280;75022;50.788;20.620;2024-03-17T13:20:12;101959.64;;;5.08;72.81
84789;BME280;75022;50.788;20.620;2024-03-17T13:30:06;102144.61;;;5.19;73.4
84789;BME280;75022;50.788;20.620;2024-03-17T13:40:07;102098.03;;;5.3;72.97999999999999
84789;BME280;75022;50.788;20.620;2024-03-17T13:50:16;102135.78;;;5.3999999999999995;73.57
84789;BME280;75022;50.788;20.620;2024-03-17T14:00:12;102066.5;;;5.4;73.55
84789;BME280;75022;50.788;20.620;2024-03-17T14:10:19;101929.6;;;5.42;73.71
84789;BME280;75022;50.788;20.620;2024-03-17T14:20:14;102059.2;;;5.39;73.26
84789;BME280;75022;50.788;20.620;2024-03-17T14:30:15;102010.07;;;5.28;73.49
84789;BME280;75022;50.788;20.620;2024-03-17T14:40:16;102040.6;;;5.21;74.14
84789;BME280;75022;50.788;20.620;2024-03-17T14:50:18;102018.32;;;5.11;74.02
84789;BME280;75022;50.788;20.620;2024-03-17T15:00:20;101937.12;;;4.99;74.45
84789;BME280;75022;50.788;20.620;2024-03-17T15:10:05;102033.99;;;4.94;74.41
84789;BME280;75022;50.788;20.620;2024-03-17T15:20:22;102097.34;;;4.86;75.06
84789;BME280;75022;50.788;20.620;2024-03-17T15:30:19;102034.74;;;4.819999999999999;75.21
84789;BME280;75022;50.788;20.620;2024-03-17T15:40:21;102039.97;;;4.68;75.64999999999999
84789;BME280;75022;50.788;20.620;2024-03-17T15:50:06;102054.4;;;4.51;76.01
84789;BME280;75022;50.788;20.620;2024-03-17T16:00:15;102052.46;;;4.33;74.59
84789;BME280;75022;50.788;20.620;2024-03-17T16:10:33;102105.9;;;4.140000000000001;70.86999999999999
84789;BME280;75022;50.788;20.620;2024-03-17T16:21:00;102066.09;;;3.97;67.44
84789;BME280;75022;50.788;20.620;2024-03-17T16:30:18;101987.1;;;3.78;64.14
84789;BME280;75022;50.788;20.620;2024-03-17T16:40:07;101984.05;;;3.7;60.15
84789;BME280;75022;50.788;20.620;2024-03-17T16:50:17;102066.34;;;3.58;56.46
84789;BME280;75022;50.788;20.620;2024-03-17T17:00:31;102111.15;;;3.48;54.53
84789;BME280;75022;50.788;20.620;2024-03-17T17:10:14;102109.16;;;3.36;54.63
84789;BME280;75022;50.788;20.620;2024-03-17T17:20:17;102076.14;;;3.2699999999999996;55.15
84789;BME280;75022;50.788;20.620;2024-03-17T17:30:15;102152.6;;;3.13;55.2
84789;BME280;75022;50.788;20.620;2024-03-17T17:40:02;102054.57;;;3.03;55.57
84789;BME280;75022;50.788;20.620;2024-03-17T17:50:07;102149.07;;;2.82;55.61
84789;BME280;75022;50.788;20.620;2024-03-17T18:00:23;102108.35;;;2.63;56.06
84789;BME280;75022;50.788;20.620;2024-03-17T18:10:04;101984.5;;;2.45;56.31
84789;BME280;75022;50.788;20.620;2024-03-17T18:20:13;101995.15;;;2.33;56.56
84789;BME280;75022;50.788;20.620;2024-03-17T18:30:16;102029.86;;;2.1999999999999997;56.93
84789;BME280;75022;50.788;20.620;2024-03-17T18:40:12;102066.25;;;2.04;57.6
84789;BME280;75022;50.788;20.620;2024-03-17T18:50:08;102063.71;;;2.05;57.47
84789;BME280;75022;50.788;20.620;2024-03-17T19:00:21;101967.24;;;2.0599999999999996;57.67
84789;BME280;75022;50.788;20.620;2024-03-17T19:10:08;102090.0;;;1.96;57.800000000000004
84789;BME280;75022;50.788;20.620;2024-03-17T19:20:11;102006.54;;;1.84;58.42
84789;BME280;75022;50.788;20.620;2024-03-17T19:30:06;102077.3;;;1.71;59.160000000000004
84789;BME280;75022;50.788;20.620;2024-03-17T19:40:10;102139.8;;;1.56;59.76
84789;BME280;75022;50.788;20.620;2024-03-17T19:50:11;102128.83;;;1.43;60.04
84789;BME280;75022;50.788;20.620;2024-03-17T20:00:22;102063.42;;;1.28;60.54
84789;BME280;75022;50.788;20.620;2024-03-17T20:10:15;102125.99;;;1.23;60.93
84789;BME280;75022;50.788;20.620;2024-03-17T20:20:18;101990.74;;;1.1300000000000001;61.21
84789;BME280;75022;50.788;20.620;2024-03-17T20:30:12;102046.56;;;1.03;61.63
84789;BME280;75022;50.788;20.620;2024-03-17T20:40:11;102164.68;;;0.95;62.22
84789;BME280;75022;50.788;20.620;2024-03-17T20:50:02;102180.61;;;0.87;63.07
84789;BME280;75022;50.788;20.620;2024-03-17T21:00:25;102018.09;;;0.8;63.07
84789;BME280;75022;50.788;20.620;2024-03-17T21:10:09;102089.02;;;0.75;63.9
84789;BME280;75022;50.788;20.620;2024-03-17T21:20:13;102034.41;;;0.74;63.79
84789;BME280;75022;50.788;20.620;2024-03-17T21:30:20;102156.37;;;0.73;63.43
84789;BME280;75022;50.788;20.620;2024-03-17T21:40:20;102029.14;;;0.65;63.14
84789;BME280;75022;50.788;20.620;2024-03-17T21:50:06;102021.57;;;0.57;63.120000000000005
84789;BME280;75022;50.788;20.620;2024-03-17T22:00:29;102073.84;;;0.49;62.800000000000004
84789;BME280;75022;50.788;20.620;2024-03-17T22:10:03;102042.26;;;0.42;62.67
84789;BME280;75022;50.788;20.620;2024-03-17T22:20:10;102063.04;;;0.36;62.4
84789;BME280;75022;50.788;20.620;2024-03-17T22:30:09;102078.27;;;0.31;62.03
84789;BME280;75022;50.788;20.620;2024-03-17T22:40:14;101948.49;;;0.32;62.0
84789;BME280;75022;50.788;20.620;2024-03-17T22:50:09;102129.69;;;0.32;62.11
84789;BME280;75022;50.788;20.620;2024-03-17T23:01:03;102006.19;;;0.3;62.34
84789;BME280;75022;50.788;20.620;2024-03-17T23:10:16;102027.23;;;0.17;62.04
84789;BME280;75022;50.788;20.620;2024-03-17T23:20:06;101958.93;;;0.03;61.89
84789;BME280;75022;50.788;20.620;2024-03-17T23:50:02;101913.8;;;-0.39;62.03
